createdAt,value
2023-01-21T00:00:45.780Z,1.50
2023-01-21T00:03:13.110Z,1.50
2023-01-21T00:05:40.008Z,1.50
2023-01-21T00:08:07.051Z,1.50
2023-01-21T00:10:33.986Z,1.50
2023-01-21T00:13:01.044Z,1.50
2023-01-21T00:15:27.925Z,1.50
2023-01-21T00:17:55.214Z,1.50
2023-01-21T00:20:22.284Z,1.50
2023-01-21T00:22:49.178Z,1.50
2023-01-21T00:25:16.101Z,1.50
2023-01-21T00:27:43.125Z,1.50
2023-01-21T00:30:10.850Z,1.50
2023-01-21T00:32:38.031Z,1.50
2023-01-21T00:35:06.422Z,1.40
2023-01-21T00:37:34.003Z,1.40
2023-01-21T00:40:01.689Z,1.40
2023-01-21T00:42:28.924Z,1.40
2023-01-21T00:44:57.497Z,1.50
2023-01-21T00:47:24.839Z,1.40
2023-01-21T00:49:51.773Z,1.40
2023-01-21T00:52:18.758Z,1.40
2023-01-21T00:54:45.633Z,1.40
2023-01-21T00:57:13.951Z,1.40
2023-01-21T00:59:41.037Z,1.40
2023-01-21T01:02:08.420Z,1.30
2023-01-21T01:04:35.248Z,1.40
2023-01-21T01:07:02.278Z,1.30
2023-01-21T01:09:29.349Z,1.30
2023-01-21T01:11:56.488Z,1.30
2023-01-21T01:14:23.608Z,1.40
2023-01-21T01:16:50.554Z,1.40
2023-01-21T01:19:18.038Z,1.40
2023-01-21T01:21:44.936Z,1.30
2023-01-21T01:24:12.032Z,1.30
2023-01-21T01:26:41.847Z,1.40
2023-01-21T01:29:11.411Z,1.40
2023-01-21T01:31:38.416Z,1.40
2023-01-21T01:34:05.260Z,1.40
2023-01-21T01:36:32.194Z,1.50
2023-01-21T01:38:59.239Z,1.50
2023-01-21T01:41:27.612Z,1.50
2023-01-21T01:43:57.479Z,1.50
2023-01-21T01:46:26.010Z,1.50
2023-01-21T01:48:55.508Z,1.40
2023-01-21T01:51:26.471Z,1.50
2023-01-21T01:53:53.536Z,1.50
2023-01-21T01:56:20.651Z,1.50
2023-01-21T01:58:48.351Z,1.40
2023-01-21T02:01:15.268Z,1.50
2023-01-21T02:03:46.137Z,1.40
2023-01-21T02:06:14.741Z,1.40
2023-01-21T02:08:42.854Z,1.40
2023-01-21T02:11:13.930Z,1.50
2023-01-21T02:13:42.289Z,1.50
2023-01-21T02:16:21.591Z,1.50
2023-01-21T02:18:49.930Z,1.50
2023-01-21T02:21:17.177Z,1.50
2023-01-21T02:24:23.148Z,1.50
2023-01-21T02:26:53.373Z,1.50
2023-01-21T02:29:46.435Z,1.50
2023-01-21T02:32:45.166Z,1.40
2023-01-21T02:35:15.853Z,1.40
2023-01-21T02:38:02.460Z,1.50
2023-01-21T02:40:47.463Z,1.40
2023-01-21T02:43:18.422Z,1.40
2023-01-21T02:45:59.744Z,1.40
2023-01-21T02:48:26.851Z,1.40
2023-01-21T02:50:55.457Z,1.40
2023-01-21T02:53:32.771Z,1.40
2023-01-21T02:56:11.905Z,1.40
2023-01-21T02:58:44.168Z,1.40
2023-01-21T03:01:11.565Z,1.30
2023-01-21T03:03:59.180Z,1.20
2023-01-21T03:06:36.535Z,1.20
2023-01-21T03:09:22.900Z,1.00
2023-01-21T03:12:00.077Z,1.00
2023-01-21T03:15:01.315Z,0.90
2023-01-21T03:17:52.985Z,0.90
2023-01-21T03:20:34.782Z,0.80
2023-01-21T03:23:04.094Z,0.90
2023-01-21T03:25:32.104Z,0.90
2023-01-21T03:28:00.714Z,0.90
2023-01-21T03:30:28.832Z,0.90
2023-01-21T03:32:57.506Z,1.00
2023-01-21T03:35:26.768Z,0.90
2023-01-21T03:38:08.942Z,0.90
2023-01-21T03:40:38.199Z,1.00
2023-01-21T03:43:05.172Z,1.00
2023-01-21T03:45:41.617Z,1.00
2023-01-21T03:48:14.086Z,1.00
2023-01-21T03:50:42.998Z,1.00
2023-01-21T03:53:10.024Z,1.00
2023-01-21T03:55:36.950Z,1.00
2023-01-21T03:58:03.854Z,1.00
2023-01-21T04:00:30.696Z,1.10
2023-01-21T04:02:57.597Z,1.10
2023-01-21T04:05:24.479Z,1.00
2023-01-21T04:07:51.351Z,1.10
2023-01-21T04:10:18.709Z,1.10
2023-01-21T04:12:45.868Z,1.10
2023-01-21T04:15:12.745Z,1.10
2023-01-21T04:17:39.647Z,1.00
2023-01-21T04:20:07.148Z,1.00
2023-01-21T04:22:33.994Z,1.00
2023-01-21T04:25:00.882Z,1.00
2023-01-21T04:27:27.743Z,1.00
2023-01-21T04:29:54.950Z,0.90
2023-01-21T04:32:21.986Z,0.90
2023-01-21T04:34:48.812Z,0.90
2023-01-21T04:37:15.774Z,0.90
2023-01-21T04:39:42.623Z,1.00
2023-01-21T04:42:09.494Z,1.00
2023-01-21T04:44:36.303Z,1.00
2023-01-21T04:47:03.259Z,1.00
2023-01-21T04:49:30.130Z,1.00
2023-01-21T04:51:57.065Z,1.00
2023-01-21T04:54:23.987Z,1.00
2023-01-21T04:56:50.818Z,1.00
2023-01-21T04:59:17.824Z,1.00
2023-01-21T05:01:44.635Z,1.00
2023-01-21T05:04:11.511Z,1.00
2023-01-21T05:06:38.404Z,1.00
2023-01-21T05:09:05.420Z,1.00
2023-01-21T05:11:32.264Z,1.00
2023-01-21T05:13:59.098Z,0.90
2023-01-21T05:16:26.064Z,1.00
2023-01-21T05:18:52.955Z,0.90
2023-01-21T05:21:19.813Z,0.90
2023-01-21T05:23:46.662Z,0.90
2023-01-21T05:26:13.621Z,0.90
2023-01-21T05:28:43.491Z,0.90
2023-01-21T05:31:11.499Z,0.90
2023-01-21T05:33:38.560Z,0.90
2023-01-21T05:36:15.540Z,0.80
2023-01-21T05:38:44.464Z,0.80
2023-01-21T05:41:21.400Z,0.80
2023-01-21T05:43:48.870Z,0.80
2023-01-21T05:46:22.126Z,0.70
2023-01-21T05:48:54.934Z,0.70
2023-01-21T05:51:24.042Z,0.70
2023-01-21T05:54:03.419Z,0.60
2023-01-21T05:56:32.636Z,0.70
2023-01-21T05:58:59.561Z,0.70
2023-01-21T06:01:26.480Z,0.60
2023-01-21T06:03:53.388Z,0.60
2023-01-21T06:06:20.933Z,0.50
2023-01-21T06:08:47.817Z,0.50
2023-01-21T06:11:14.698Z,0.50
2023-01-21T06:13:41.521Z,0.50
2023-01-21T06:16:08.608Z,0.50
2023-01-21T06:18:36.731Z,0.40
2023-01-21T06:21:03.785Z,0.30
2023-01-21T06:23:30.663Z,0.30
2023-01-21T06:26:00.959Z,0.30
2023-01-21T06:28:28.057Z,0.20
2023-01-21T06:30:55.076Z,0.30
2023-01-21T06:33:21.976Z,0.30
2023-01-21T06:35:48.891Z,0.30
2023-01-21T06:38:15.743Z,0.30
2023-01-21T06:40:43.417Z,0.30
2023-01-21T06:43:10.296Z,0.30
2023-01-21T06:45:37.200Z,0.30
2023-01-21T06:48:04.159Z,0.20
2023-01-21T06:50:31.062Z,0.30
2023-01-21T06:52:57.939Z,0.30
2023-01-21T06:55:24.811Z,0.30
2023-01-21T06:57:51.674Z,0.30
2023-01-21T07:00:19.374Z,0.30
2023-01-21T07:02:46.486Z,0.40
2023-01-21T07:05:15.353Z,0.40
2023-01-21T07:07:42.462Z,0.40
2023-01-21T07:10:09.727Z,0.30
2023-01-21T07:12:36.676Z,0.30
2023-01-21T07:15:03.791Z,0.30
2023-01-21T07:17:30.640Z,0.30
2023-01-21T07:19:57.549Z,0.40
2023-01-21T07:22:24.392Z,0.40
2023-01-21T07:24:51.316Z,0.40
2023-01-21T07:27:18.223Z,0.40
2023-01-21T07:29:45.055Z,0.50
2023-01-21T07:32:11.905Z,0.60
2023-01-21T07:34:38.783Z,0.60
2023-01-21T07:37:05.713Z,0.60
2023-01-21T07:39:32.756Z,0.60
2023-01-21T07:41:59.787Z,0.70
2023-01-21T07:44:27.074Z,0.70
2023-01-21T07:46:53.930Z,0.80
2023-01-21T07:49:20.815Z,0.90
2023-01-21T07:51:47.967Z,0.90
2023-01-21T07:54:15.396Z,0.90
2023-01-21T07:56:42.256Z,0.90
2023-01-21T07:59:10.105Z,1.10
2023-01-21T08:01:37.119Z,1.10
2023-01-21T08:04:04.217Z,1.10
2023-01-21T08:06:31.106Z,1.10
2023-01-21T08:08:57.967Z,1.10
2023-01-21T08:11:25.113Z,1.10
2023-01-21T08:13:51.990Z,1.20
2023-01-21T08:16:19.024Z,1.20
2023-01-21T08:18:45.926Z,1.20
2023-01-21T08:21:12.824Z,1.30
2023-01-21T08:23:39.702Z,1.40
2023-01-21T08:26:06.881Z,1.40
2023-01-21T08:28:34.291Z,1.40
2023-01-21T08:31:08.691Z,1.40
2023-01-21T08:33:35.808Z,1.50
2023-01-21T08:36:06.669Z,1.50
2023-01-21T08:38:34.086Z,1.60
2023-01-21T08:41:01.000Z,1.60
2023-01-21T08:43:28.043Z,1.70
2023-01-21T08:45:59.423Z,1.60
2023-01-21T08:48:26.330Z,1.70
2023-01-21T08:50:53.236Z,1.80
2023-01-21T08:53:20.152Z,1.80
2023-01-21T08:55:47.038Z,1.80
2023-01-21T08:58:13.971Z,1.90
2023-01-21T09:00:42.013Z,1.90
2023-01-21T09:03:08.921Z,1.90
2023-01-21T09:05:35.959Z,2.00
2023-01-21T09:08:02.881Z,2.00
2023-01-21T09:10:48.725Z,2.10
2023-01-21T09:13:16.548Z,2.20
2023-01-21T09:15:43.921Z,2.20
2023-01-21T09:18:11.239Z,2.30
2023-01-21T09:20:39.219Z,2.30
2023-01-21T09:23:24.279Z,2.40
2023-01-21T09:26:00.656Z,2.30
2023-01-21T09:28:27.558Z,2.40
2023-01-21T09:30:59.031Z,2.40
2023-01-21T09:33:26.715Z,2.40
2023-01-21T09:35:57.815Z,2.40
2023-01-21T09:38:25.487Z,2.40
2023-01-21T09:40:52.794Z,2.50
2023-01-21T09:43:32.098Z,2.50
2023-01-21T09:46:01.149Z,2.50
2023-01-21T09:48:35.498Z,2.50
2023-01-21T09:51:04.940Z,2.60
2023-01-21T09:53:34.558Z,2.70
2023-01-21T09:56:02.305Z,2.70
2023-01-21T09:58:42.149Z,2.70
2023-01-21T10:01:29.306Z,2.80
2023-01-21T10:04:00.299Z,3.00
2023-01-21T10:06:27.172Z,3.20
2023-01-21T10:08:54.077Z,3.30
2023-01-21T10:11:23.959Z,3.50
2023-01-21T10:13:56.809Z,3.60
2023-01-21T10:16:29.883Z,3.60
2023-01-21T10:18:58.377Z,3.60
2023-01-21T10:21:46.361Z,3.70
2023-01-21T10:24:15.487Z,3.80
2023-01-21T10:26:43.541Z,3.80
2023-01-21T10:29:15.299Z,3.90
2023-01-21T10:31:44.652Z,3.90
2023-01-21T10:34:15.126Z,3.90
2023-01-21T10:36:45.031Z,4.00
2023-01-21T10:39:30.378Z,4.20
2023-01-21T10:42:08.395Z,4.40
2023-01-21T10:44:58.171Z,4.50
2023-01-21T10:47:28.133Z,4.30
2023-01-21T10:50:01.240Z,4.30
2023-01-21T10:52:37.226Z,4.20
2023-01-21T10:55:33.560Z,4.00
2023-01-21T10:58:05.038Z,3.90
2023-01-21T11:00:34.110Z,3.90
2023-01-21T11:03:02.621Z,3.90
2023-01-21T11:05:30.583Z,3.90
2023-01-21T11:07:57.821Z,3.90
2023-01-21T11:10:26.185Z,3.90
2023-01-21T11:12:56.726Z,4.00
2023-01-21T11:15:24.233Z,4.00
2023-01-21T11:17:56.774Z,4.10
2023-01-21T11:20:35.340Z,4.10
2023-01-21T11:23:04.347Z,4.30
2023-01-21T11:25:35.794Z,4.60
2023-01-21T11:28:03.654Z,4.70
2023-01-21T11:30:50.514Z,4.80
2023-01-21T11:33:27.570Z,4.80
2023-01-21T11:35:55.436Z,4.60
2023-01-21T11:38:31.915Z,4.50
2023-01-21T11:41:08.776Z,4.50
2023-01-21T11:43:40.887Z,4.50
2023-01-21T11:46:26.245Z,4.50
2023-01-21T11:49:16.640Z,4.50
2023-01-21T11:51:45.075Z,4.70
2023-01-21T11:54:16.200Z,4.70
2023-01-21T11:56:52.252Z,4.80
2023-01-21T11:59:28.368Z,4.80
2023-01-21T12:02:00.208Z,4.70
2023-01-21T12:04:27.091Z,4.60
2023-01-21T12:06:58.117Z,4.60
2023-01-21T12:09:25.167Z,4.60
2023-01-21T12:12:10.540Z,4.60
2023-01-21T12:14:58.130Z,4.60
2023-01-21T12:17:41.387Z,4.60
2023-01-21T12:20:08.347Z,4.70
2023-01-21T12:22:50.586Z,4.60
2023-01-21T12:25:21.776Z,4.60
2023-01-21T12:27:51.671Z,4.70
2023-01-21T12:30:48.100Z,4.70
2023-01-21T12:33:17.991Z,4.60
2023-01-21T12:35:51.498Z,4.60
2023-01-21T12:38:20.879Z,4.60
2023-01-21T12:41:01.648Z,4.70
2023-01-21T12:43:43.312Z,4.70
2023-01-21T12:46:22.417Z,4.70
2023-01-21T12:48:57.125Z,4.60
2023-01-21T12:51:28.011Z,4.60
2023-01-21T12:54:13.735Z,4.60
2023-01-21T12:56:40.624Z,4.60
2023-01-21T12:59:07.432Z,4.60
2023-01-21T13:01:40.778Z,4.50
2023-01-21T13:04:22.900Z,4.50
2023-01-21T13:06:56.808Z,4.50
2023-01-21T13:09:23.715Z,4.40
2023-01-21T13:11:56.678Z,4.40
2023-01-21T13:14:59.107Z,4.40
2023-01-21T13:17:33.920Z,4.40
2023-01-21T13:20:00.948Z,4.40
2023-01-21T13:22:41.277Z,4.30
2023-01-21T13:25:23.510Z,4.20
2023-01-21T13:27:50.359Z,4.30
2023-01-21T13:30:20.423Z,4.30
2023-01-21T13:32:52.215Z,4.20
2023-01-21T13:35:19.726Z,4.20
2023-01-21T13:37:55.850Z,4.20
2023-01-21T13:40:39.389Z,4.20
2023-01-21T13:43:25.195Z,4.20
2023-01-21T13:45:55.194Z,4.10
2023-01-21T13:48:28.416Z,4.10
2023-01-21T13:51:00.064Z,4.10
2023-01-21T13:53:36.328Z,4.20
2023-01-21T13:56:03.610Z,4.10
2023-01-21T13:58:43.108Z,4.10
2023-01-21T14:01:13.875Z,4.10
2023-01-21T14:03:50.200Z,4.10
2023-01-21T14:06:32.332Z,4.10
2023-01-21T14:09:04.855Z,4.20
2023-01-21T14:11:35.278Z,4.10
2023-01-21T14:14:08.317Z,4.10
2023-01-21T14:16:59.488Z,3.80
2023-01-21T14:19:41.687Z,3.90
2023-01-21T14:22:18.133Z,3.90
2023-01-21T14:24:45.118Z,4.00
2023-01-21T14:27:18.187Z,4.00
2023-01-21T14:29:51.919Z,4.00
2023-01-21T14:32:23.787Z,4.00
2023-01-21T14:34:50.862Z,4.00
2023-01-21T14:37:20.490Z,4.00
2023-01-21T14:40:13.782Z,4.00
2023-01-21T14:42:43.885Z,4.00
2023-01-21T14:45:13.085Z,4.00
2023-01-21T14:47:40.066Z,4.00
2023-01-21T14:50:08.303Z,4.00
2023-01-21T14:52:40.313Z,3.90
2023-01-21T14:55:30.034Z,3.90
2023-01-21T14:57:57.744Z,3.90
2023-01-21T15:00:30.638Z,3.90
2023-01-21T15:03:16.716Z,3.80
2023-01-21T15:05:45.315Z,3.80
2023-01-21T15:08:17.345Z,3.80
2023-01-21T15:10:50.036Z,3.80
2023-01-21T15:13:27.395Z,3.80
2023-01-21T15:16:06.240Z,3.80
2023-01-21T15:18:38.248Z,3.80
2023-01-21T15:21:24.077Z,3.70
2023-01-21T15:23:51.154Z,3.70
2023-01-21T15:26:19.561Z,3.60
2023-01-21T15:28:49.516Z,3.50
2023-01-21T15:31:23.732Z,3.50
2023-01-21T15:33:56.544Z,3.50
2023-01-21T15:36:25.993Z,3.50
2023-01-21T15:38:54.209Z,3.50
2023-01-21T15:41:23.818Z,3.60
2023-01-21T15:43:55.574Z,3.50
2023-01-21T15:46:40.948Z,3.40
2023-01-21T15:49:26.728Z,3.40
2023-01-21T15:52:09.115Z,3.40
2023-01-21T15:54:42.439Z,3.30
2023-01-21T15:57:21.771Z,3.30
2023-01-21T15:59:59.158Z,3.30
2023-01-21T16:02:32.437Z,3.30
2023-01-21T16:05:18.688Z,3.20
2023-01-21T16:08:22.626Z,3.30
2023-01-21T16:10:58.749Z,3.20
2023-01-21T16:13:40.934Z,3.10
2023-01-21T16:16:17.191Z,3.10
2023-01-21T16:18:53.383Z,3.10
2023-01-21T16:21:22.951Z,3.10
2023-01-21T16:23:52.658Z,3.20
2023-01-21T16:26:27.737Z,3.20
2023-01-21T16:28:55.088Z,3.10
2023-01-21T16:31:22.511Z,3.00
2023-01-21T16:33:50.359Z,2.90
2023-01-21T16:36:18.389Z,2.90
2023-01-21T16:38:47.068Z,2.90
2023-01-21T16:41:14.330Z,2.90
2023-01-21T16:43:49.648Z,3.00
2023-01-21T16:46:25.640Z,3.00
2023-01-21T16:48:54.422Z,3.00
2023-01-21T16:51:28.944Z,2.90
2023-01-21T16:54:15.051Z,2.90
2023-01-21T16:57:02.854Z,2.90
2023-01-21T16:59:37.060Z,2.90
2023-01-21T17:02:05.402Z,2.80
2023-01-21T17:04:32.606Z,2.80
2023-01-21T17:06:59.641Z,2.70
2023-01-21T17:09:29.918Z,2.70
2023-01-21T17:11:58.415Z,2.60
2023-01-21T17:14:27.724Z,2.60
2023-01-21T17:16:56.635Z,2.60
2023-01-21T17:19:25.736Z,2.60
2023-01-21T17:21:55.743Z,2.50
2023-01-21T17:24:25.514Z,2.20
2023-01-21T17:26:55.341Z,2.20
2023-01-21T17:29:23.911Z,2.30
2023-01-21T17:31:56.014Z,2.40
2023-01-21T17:34:30.855Z,2.30
2023-01-21T17:36:58.999Z,2.30
2023-01-21T17:39:45.437Z,2.30
2023-01-21T17:42:15.598Z,2.30
2023-01-21T17:44:46.467Z,2.20
2023-01-21T17:47:24.796Z,2.30
2023-01-21T17:49:59.559Z,2.30
2023-01-21T17:52:27.378Z,2.40
2023-01-21T17:55:10.792Z,2.40
2023-01-21T17:57:38.096Z,2.20
2023-01-21T18:00:24.660Z,2.20
2023-01-21T18:02:52.537Z,2.20
2023-01-21T18:05:19.922Z,2.00
2023-01-21T18:07:48.679Z,2.10
2023-01-21T18:10:20.629Z,2.20
2023-01-21T18:12:51.155Z,2.20
2023-01-21T18:15:21.272Z,2.30
2023-01-21T18:17:51.664Z,2.20
2023-01-21T18:20:20.703Z,2.30
2023-01-21T18:22:48.563Z,2.20
2023-01-21T18:25:16.467Z,2.20
2023-01-21T18:27:47.140Z,2.30
2023-01-21T18:30:32.871Z,2.30
2023-01-21T18:33:00.178Z,2.20
2023-01-21T18:35:28.992Z,2.30
2023-01-21T18:37:56.565Z,2.20
2023-01-21T18:40:25.040Z,2.30
2023-01-21T18:42:55.359Z,2.30
2023-01-21T18:45:27.167Z,2.20
2023-01-21T18:47:55.516Z,2.30
2023-01-21T18:50:27.454Z,2.20
2023-01-21T18:52:55.954Z,2.30
2023-01-21T18:55:27.145Z,2.30
2023-01-21T18:57:55.912Z,2.30
2023-01-21T19:00:26.807Z,2.20
2023-01-21T19:02:55.139Z,2.20
2023-01-21T19:05:27.165Z,2.20
2023-01-21T19:07:54.867Z,2.10
2023-01-21T19:10:23.848Z,2.20
2023-01-21T19:12:50.890Z,2.20
2023-01-21T19:15:19.756Z,2.20
2023-01-21T19:17:48.098Z,2.20
2023-01-21T19:20:17.242Z,2.20
2023-01-21T19:22:45.165Z,2.20
2023-01-21T19:25:13.370Z,2.20
2023-01-21T19:27:44.536Z,2.20
2023-01-21T19:30:19.425Z,2.20
2023-01-21T19:32:47.265Z,2.30
2023-01-21T19:35:15.755Z,2.20
2023-01-21T19:37:51.442Z,2.20
2023-01-21T19:40:20.599Z,2.20
2023-01-21T19:42:48.523Z,2.30
2023-01-21T19:45:16.539Z,2.30
2023-01-21T19:47:44.853Z,2.20
2023-01-21T19:50:20.485Z,2.20
2023-01-21T19:52:50.281Z,2.20
2023-01-21T19:55:19.025Z,2.10
2023-01-21T19:57:47.035Z,2.20
2023-01-21T20:00:25.578Z,2.10
2023-01-21T20:02:53.154Z,2.10
2023-01-21T20:05:22.883Z,2.20
2023-01-21T20:07:54.093Z,2.20
2023-01-21T20:10:22.717Z,2.20
2023-01-21T20:12:50.147Z,2.10
2023-01-21T20:15:19.059Z,2.20
2023-01-21T20:17:49.132Z,2.20
2023-01-21T20:20:18.552Z,2.10
2023-01-21T20:22:50.184Z,2.10
2023-01-21T20:25:19.521Z,2.00
2023-01-21T20:27:49.328Z,2.10
2023-01-21T20:30:18.651Z,2.20
2023-01-21T20:32:49.008Z,2.10
2023-01-21T20:35:17.583Z,2.20
2023-01-21T20:37:48.207Z,2.10
2023-01-21T20:40:24.902Z,2.20
2023-01-21T20:42:53.465Z,2.10
2023-01-21T20:45:22.609Z,2.10
2023-01-21T20:47:51.720Z,2.10
2023-01-21T20:50:23.514Z,2.10
2023-01-21T20:52:53.039Z,2.20
2023-01-21T20:55:21.660Z,2.10
2023-01-21T20:57:49.779Z,2.10
2023-01-21T21:00:19.163Z,2.10
2023-01-21T21:02:46.601Z,2.00
2023-01-21T21:05:14.617Z,2.00
2023-01-21T21:07:42.357Z,1.90
2023-01-21T21:10:32.035Z,1.90
2023-01-21T21:13:01.141Z,2.00
2023-01-21T21:15:32.353Z,2.00
2023-01-21T21:17:59.828Z,2.00
2023-01-21T21:20:27.502Z,2.00
2023-01-21T21:22:54.519Z,2.00
2023-01-21T21:25:22.514Z,2.10
2023-01-21T21:27:51.818Z,2.10
2023-01-21T21:30:20.560Z,2.10
2023-01-21T21:32:47.623Z,2.00
2023-01-21T21:35:25.128Z,2.00
2023-01-21T21:37:53.072Z,1.90
2023-01-21T21:40:21.830Z,2.00
2023-01-21T21:43:07.473Z,1.90
2023-01-21T21:45:36.410Z,1.90
2023-01-21T21:48:22.840Z,1.90
2023-01-21T21:50:56.586Z,2.00
2023-01-21T21:53:23.946Z,2.00
2023-01-21T21:55:50.837Z,2.00
2023-01-21T21:58:17.790Z,2.00
2023-01-21T22:00:44.870Z,1.90
2023-01-21T22:03:12.832Z,1.80
2023-01-21T22:05:40.066Z,1.80
2023-01-21T22:08:08.512Z,1.80
2023-01-21T22:10:35.480Z,1.80
2023-01-21T22:13:02.424Z,1.80
2023-01-21T22:15:29.347Z,1.80
2023-01-21T22:17:56.334Z,1.70
2023-01-21T22:20:23.303Z,1.70
2023-01-21T22:22:50.165Z,1.70
2023-01-21T22:25:17.523Z,1.70
2023-01-21T22:27:44.950Z,1.60
2023-01-21T22:30:12.389Z,1.60
2023-01-21T22:32:39.250Z,1.60
2023-01-21T22:35:06.322Z,1.60
2023-01-21T22:37:33.202Z,1.60
2023-01-21T22:40:00.119Z,1.60
2023-01-21T22:42:26.989Z,1.60
2023-01-21T22:44:53.880Z,1.60
2023-01-21T22:47:20.748Z,1.50
2023-01-21T22:49:49.336Z,1.50
2023-01-21T22:52:16.282Z,1.50
2023-01-21T22:54:43.162Z,1.40
2023-01-21T22:57:10.063Z,1.50
2023-01-21T22:59:36.963Z,1.40
2023-01-21T23:02:03.888Z,1.30
2023-01-21T23:04:30.783Z,1.30
2023-01-21T23:06:57.714Z,1.40
2023-01-21T23:09:24.763Z,1.40
2023-01-21T23:11:52.768Z,1.50
2023-01-21T23:14:20.130Z,1.50
2023-01-21T23:16:47.103Z,1.50
2023-01-21T23:19:14.089Z,1.50
2023-01-21T23:21:41.230Z,1.50
2023-01-21T23:24:08.410Z,1.50
2023-01-21T23:26:35.350Z,1.50
2023-01-21T23:29:02.267Z,1.50
2023-01-21T23:31:29.228Z,1.50
2023-01-21T23:33:56.384Z,1.50
2023-01-21T23:36:23.366Z,1.50
2023-01-21T23:38:50.222Z,1.40
2023-01-21T23:41:17.211Z,1.40
2023-01-21T23:43:44.342Z,1.50
2023-01-21T23:46:16.343Z,1.40
2023-01-21T23:48:43.631Z,1.50
2023-01-21T23:51:12.647Z,1.60
2023-01-21T23:53:39.575Z,1.60
2023-01-21T23:56:07.920Z,1.60
2023-01-21T23:58:34.771Z,1.60
